Time;durP1;ratioP1;P1;durP2;ratioP2;P2;SDS_P1;SDS_P2;PMS_P1;PMS_P2;Temp;Humidity;BMP_temperature;BMP_pressure;BME280_temperature;BME280_humidity;BME280_pressure;Samples;Min_cycle;Max_cycle;Signal;HPM_P1;HPM_P2
2022/05/13 00:01:34;;;;;;;6.75;3.75;;;;;;;12.52;85.44;95309.31;4832009;29;20053;-74
2022/05/13 00:04:02;;;;;;;5.88;4.05;;;;;;;12.48;85.37;95292.50;4831878;29;20050;-75
2022/05/13 00:06:29;;;;;;;6.85;4.40;;;;;;;12.49;84.78;95307.94;4833359;29;20534;-74
2022/05/13 00:08:56;;;;;;;7.00;4.55;;;;;;;12.33;86.21;95295.59;4844969;29;20042;-74
2022/05/13 00:11:23;;;;;;;6.07;4.78;;;;;;;12.33;86.23;95296.38;4846730;29;20062;-73
2022/05/13 00:13:50;;;;;;;6.03;4.22;;;;;;;12.51;86.65;95310.31;4831600;29;20038;-74
2022/05/13 00:16:17;;;;;;;6.75;4.55;;;;;;;12.33;86.03;95301.59;4831248;29;20492;-73
2022/05/13 00:18:44;;;;;;;8.07;4.68;;;;;;;12.36;86.62;95313.44;4830121;29;20049;-73
2022/05/13 00:21:11;;;;;;;6.85;4.43;;;;;;;12.31;86.49;95308.09;4832246;29;20524;-74
2022/05/13 00:23:38;;;;;;;7.63;4.88;;;;;;;12.27;86.44;95302.53;4833052;29;20169;-72
2022/05/13 00:26:06;;;;;;;9.48;5.00;;;;;;;12.22;85.68;95305.81;4830916;29;20044;-73
2022/05/13 00:28:33;;;;;;;7.60;4.53;;;;;;;12.16;86.11;95305.97;4829426;29;20038;-73
2022/05/13 00:31:03;;;;;;;7.05;4.13;;;;;;;11.91;85.70;95295.75;4829085;29;20046;-73
2022/05/13 00:33:32;;;;;;;6.63;3.92;;;;;;;11.81;84.88;95304.09;4830986;29;20102;-73
2022/05/13 00:35:59;;;;;;;8.70;4.72;;;;;;;11.76;85.39;95306.63;4830126;29;20046;-74
2022/05/13 00:38:26;;;;;;;5.30;4.28;;;;;;;11.56;85.60;95297.31;4831163;29;20764;-74
2022/05/13 00:40:53;;;;;;;4.55;3.28;;;;;;;11.56;86.41;95315.56;4828975;29;20468;-73
2022/05/13 00:43:38;;;;;;;8.23;4.45;;;;;;;11.49;88.32;95322.69;4832430;29;20137;-74
2022/05/13 00:46:05;;;;;;;8.55;5.43;;;;;;;11.51;91.17;95325.09;4826493;29;20050;-73
2022/05/13 00:48:34;;;;;;;11.98;4.88;;;;;;;11.43;91.83;95318.34;4832005;29;20052;-73
2022/05/13 00:51:05;;;;;;;6.65;4.30;;;;;;;11.51;91.79;95312.81;4829309;29;20078;-73
2022/05/13 00:53:34;;;;;;;7.60;4.88;;;;;;;11.61;91.46;95320.91;4831359;29;20095;-73
2022/05/13 00:56:02;;;;;;;6.97;4.60;;;;;;;11.66;90.45;95323.59;4830534;29;20428;-73
2022/05/13 00:58:33;;;;;;;6.70;4.55;;;;;;;11.64;89.39;95330.09;4842019;29;20456;-74
2022/05/13 01:01:00;;;;;;;8.98;5.25;;;;;;;11.63;88.79;95318.84;4830799;29;20049;-74
2022/05/13 01:03:27;;;;;;;6.35;5.00;;;;;;;11.54;89.16;95324.63;4828641;29;20344;-73
2022/05/13 01:05:57;;;;;;;11.90;5.65;;;;;;;11.36;90.16;95318.47;4829733;29;20041;-73
2022/05/13 01:08:25;;;;;;;8.63;4.60;;;;;;;11.15;89.35;95306.72;4859589;29;20114;-74
2022/05/13 01:10:55;;;;;;;11.27;4.82;;;;;;;11.03;88.95;95313.72;4828734;29;20053;-73
2022/05/13 01:13:24;;;;;;;6.63;4.20;;;;;;;11.00;88.27;95335.00;4827965;29;20053;-73
2022/05/13 01:15:51;;;;;;;8.48;4.60;;;;;;;10.86;88.94;95329.97;4829509;29;20042;-73
2022/05/13 01:18:44;;;;;;;6.78;4.03;;;;;;;10.87;89.42;95321.13;4841392;29;20042;-74
2022/05/13 01:21:18;;;;;;;8.45;5.43;;;;;;;10.87;90.18;95321.13;4829669;29;20524;-74
2022/05/13 01:23:45;;;;;;;6.57;4.18;;;;;;;10.85;91.42;95317.94;4827855;29;20045;-73
2022/05/13 01:26:20;;;;;;;6.47;4.82;;;;;;;10.83;91.38;95319.19;4830405;29;20044;-74
2022/05/13 01:28:50;;;;;;;8.02;5.60;;;;;;;10.72;91.82;95312.91;4828162;29;20052;-75
2022/05/13 01:31:23;;;;;;;7.68;4.85;;;;;;;10.59;92.54;95310.44;4830602;29;20122;-74
2022/05/13 01:33:51;;;;;;;9.10;5.22;;;;;;;10.56;92.93;95313.50;4830196;29;20045;-74
2022/05/13 01:36:21;;;;;;;10.75;4.97;;;;;;;10.50;93.35;95310.75;4829073;29;20042;-74
2022/05/13 01:38:49;;;;;;;9.82;4.75;;;;;;;10.37;93.81;95310.94;4829600;29;20132;-73
2022/05/13 01:41:16;;;;;;;7.85;4.63;;;;;;;10.37;93.95;95310.94;4829016;29;20049;-73
2022/05/13 01:43:46;;;;;;;9.02;4.82;;;;;;;10.31;94.37;95311.78;4830044;29;20821;-73
2022/05/13 01:46:13;;;;;;;6.07;4.60;;;;;;;10.28;94.30;95306.97;4829966;29;20049;-73
2022/05/13 01:48:41;;;;;;;6.85;4.45;;;;;;;10.28;93.37;95317.38;4830096;29;20129;-74
2022/05/13 01:51:09;;;;;;;6.57;4.00;;;;;;;10.27;93.37;95305.38;4829513;29;20103;-74
2022/05/13 01:53:36;;;;;;;7.70;4.80;;;;;;;10.32;92.87;95302.97;4828710;29;20061;-73
2022/05/13 01:56:04;;;;;;;7.13;3.92;;;;;;;10.31;92.78;95302.16;4829966;29;20057;-73
2022/05/13 01:58:33;;;;;;;6.57;4.43;;;;;;;10.34;92.34;95290.53;4829516;29;20132;-73
2022/05/13 02:01:03;;;;;;;6.50;4.70;;;;;;;10.27;92.80;95289.78;4827070;29;20050;-73
2022/05/13 02:03:45;;;;;;;9.13;4.88;;;;;;;10.34;92.99;95295.72;4829746;29;20046;-73
2022/05/13 02:06:18;;;;;;;6.60;4.32;;;;;;;10.31;93.26;95296.16;4828278;29;20761;-74
2022/05/13 02:08:46;;;;;;;7.25;4.82;;;;;;;10.23;92.82;95284.19;4829343;29;20555;-73
2022/05/13 02:11:13;;;;;;;8.88;4.80;;;;;;;10.10;94.00;95300.75;4828784;29;20121;-73
2022/05/13 02:13:41;;;;;;;12.18;4.90;;;;;;;10.13;94.76;95305.50;4829003;29;20057;-74
2022/05/13 02:16:09;;;;;;;5.82;4.10;;;;;;;10.12;94.91;95314.34;4827743;29;20077;-73
2022/05/13 02:18:36;;;;;;;7.53;4.47;;;;;;;10.13;95.43;95318.53;4828248;29;20428;-73
2022/05/13 02:21:03;;;;;;;7.88;4.57;;;;;;;9.90;94.97;95279.31;4829770;29;20057;-73
2022/05/13 02:23:30;;;;;;;5.30;4.25;;;;;;;10.05;95.07;95313.63;4828843;29;20344;-73
2022/05/13 02:26:00;;;;;;;8.57;5.05;;;;;;;10.00;94.61;95310.06;4827849;29;20573;-73
2022/05/13 02:28:30;;;;;;;6.18;4.10;;;;;;;9.93;95.22;95312.72;4856318;29;20050;-73
2022/05/13 02:30:59;;;;;;;10.48;4.88;;;;;;;9.89;95.47;95314.19;4829320;29;20888;-73
2022/05/13 02:33:27;;;;;;;11.20;4.78;;;;;;;9.79;96.33;95299.03;4827042;29;20145;-74
2022/05/13 02:35:55;;;;;;;7.75;5.07;;;;;;;9.87;96.50;95311.00;4828916;29;20042;-74
2022/05/13 02:38:22;;;;;;;6.25;4.22;;;;;;;9.75;95.64;95309.06;4824452;29;20057;-73
2022/05/13 02:43:34;;;;;;;7.78;4.40;;;;;;;9.73;95.39;95308.50;4825611;29;20046;-74
2022/05/13 02:46:05;;;;;;;7.20;4.88;;;;;;;9.67;96.25;95316.34;4829564;29;20209;-73
2022/05/13 02:48:33;;;;;;;7.03;4.40;;;;;;;9.61;97.48;95318.00;4825203;29;20540;-74
2022/05/13 02:51:00;;;;;;;6.88;4.05;;;;;;;9.62;97.62;95308.41;4827041;29;20061;-73
2022/05/13 02:53:27;;;;;;;7.70;4.47;;;;;;;9.59;97.41;95309.63;4827788;29;20079;-74
2022/05/13 02:55:54;;;;;;;6.53;4.20;;;;;;;9.68;97.18;95323.94;4828510;29;20048;-74
2022/05/13 02:58:20;;;;;;;7.30;4.32;;;;;;;9.69;97.62;95315.16;4827705;29;20069;-73
2022/05/13 03:00:47;;;;;;;7.03;4.40;;;;;;;9.64;98.33;95307.19;4827806;29;20037;-73
2022/05/13 03:03:14;;;;;;;11.02;5.47;;;;;;;9.81;98.84;95322.25;4829796;29;20042;-73
2022/05/13 03:05:41;;;;;;;9.90;4.63;;;;;;;9.86;99.18;95330.22;4829102;29;20053;-74
2022/05/13 03:08:09;;;;;;;9.35;4.80;;;;;;;9.96;99.59;95330.53;4830166;29;20046;-74
2022/05/13 03:10:38;;;;;;;8.50;5.03;;;;;;;9.98;99.88;95333.69;4826754;29;20054;-74
2022/05/13 03:13:09;;;;;;;5.35;3.58;;;;;;;9.88;100.00;95333.38;4830536;29;20054;-73
2022/05/13 03:15:36;;;;;;;9.52;4.32;;;;;;;9.90;100.00;95326.16;4829894;29;20054;-73
2022/05/13 03:18:04;;;;;;;6.47;4.00;;;;;;;9.94;100.00;95327.34;4830637;29;20378;-73
2022/05/13 03:20:31;;;;;;;5.10;3.72;;;;;;;9.98;100.00;95327.72;4832640;29;20131;-74
2022/05/13 03:22:58;;;;;;;11.02;4.45;;;;;;;9.96;99.53;95320.13;4833003;29;20045;-73
2022/05/13 03:25:25;;;;;;;7.15;4.32;;;;;;;10.08;99.07;95338.41;4835303;29;20050;-74
2022/05/13 03:27:51;;;;;;;8.52;4.88;;;;;;;9.92;98.24;95319.75;4831393;29;20062;-74
2022/05/13 03:30:23;;;;;;;7.80;4.20;;;;;;;9.93;97.86;95346.56;4847559;29;20049;-74
2022/05/13 03:32:54;;;;;;;9.40;4.45;;;;;;;9.69;97.87;95325.53;4831141;29;20640;-74
2022/05/13 03:35:23;;;;;;;10.52;4.38;;;;;;;9.72;98.23;95345.94;4834465;29;20046;-74
2022/05/13 03:37:49;;;;;;;7.65;4.57;;;;;;;9.58;98.22;95334.03;4832645;29;20070;-74
2022/05/13 03:40:17;;;;;;;8.52;5.47;;;;;;;9.53;98.38;95337.25;4832391;29;20053;-73
2022/05/13 03:42:45;;;;;;;7.30;4.40;;;;;;;9.51;98.04;95322.91;4832389;29;20046;-73
2022/05/13 03:45:14;;;;;;;6.82;4.35;;;;;;;9.68;98.20;95349.94;4832868;29;20133;-74
2022/05/13 03:47:41;;;;;;;6.95;4.88;;;;;;;9.64;97.98;95335.78;4831394;29;20054;-74
2022/05/13 03:50:08;;;;;;;9.45;5.50;;;;;;;9.72;98.85;95350.31;4831281;29;20132;-74
2022/05/13 03:52:36;;;;;;;15.00;5.28;;;;;;;9.82;98.78;95349.84;4817043;29;20058;-74
2022/05/13 03:55:05;;;;;;;9.35;4.15;;;;;;;9.93;99.01;95346.56;4831275;29;20053;-74
2022/05/13 03:57:32;;;;;;;8.40;4.47;;;;;;;10.08;98.80;95360.03;4831342;29;20049;-74
2022/05/13 04:00:00;;;;;;;10.00;4.82;;;;;;;10.20;98.72;95361.94;4830802;29;20038;-74
2022/05/13 04:02:29;;;;;;;10.55;5.47;;;;;;;10.32;98.39;95361.03;4831227;29;20102;-73
2022/05/13 04:10:28;;;;;;;7.72;4.78;;;;;;;10.75;96.47;95369.81;4845360;29;20069;-74
2022/05/13 04:18:27;;;;;;;8.57;5.00;;;;;;;11.08;95.20;95368.59;4845389;29;20110;-74
2022/05/13 04:20:54;;;;;;;9.52;4.65;;;;;;;11.13;94.93;95366.13;4829792;29;20065;-74
2022/05/13 04:23:21;;;;;;;7.85;4.85;;;;;;;11.27;93.95;95366.72;4860343;29;20050;-74
2022/05/13 04:25:48;;;;;;;8.40;4.43;;;;;;;11.37;93.19;95363.59;4828987;29;20057;-74
2022/05/13 04:28:15;;;;;;;8.20;3.92;;;;;;;11.48;91.98;95378.47;4830214;29;20867;-76
2022/05/13 04:30:42;;;;;;;9.02;5.43;;;;;;;11.55;91.85;95373.97;4830770;29;20110;-75
2022/05/13 04:33:14;;;;;;;8.57;4.95;;;;;;;11.71;91.30;95376.97;4828157;29;20666;-68
2022/05/13 04:35:44;;;;;;;11.25;5.10;;;;;;;11.82;90.87;95378.78;4831175;29;20520;-76
2022/05/13 04:38:11;;;;;;;7.22;4.90;;;;;;;11.95;90.83;95373.38;4830540;29;20038;-76
2022/05/13 04:40:38;;;;;;;8.40;5.53;;;;;;;12.11;90.13;95381.56;4831328;29;20049;-76
2022/05/13 04:43:06;;;;;;;14.13;5.80;;;;;;;12.16;89.67;95379.06;4831592;29;20046;-77
2022/05/13 04:45:34;;;;;;;9.57;4.95;;;;;;;12.16;89.84;95373.84;4829072;29;20054;-68
2022/05/13 04:48:16;;;;;;;8.85;5.47;;;;;;;12.25;89.69;95380.31;4830146;29;20805;-68
2022/05/13 04:51:01;;;;;;;6.25;4.75;;;;;;;12.34;89.54;95381.56;4829577;29;20050;-67
2022/05/13 04:53:30;;;;;;;9.65;5.47;;;;;;;12.48;89.05;95381.31;4831342;29;21201;-67
2022/05/13 04:55:58;;;;;;;10.52;5.93;;;;;;;12.64;88.21;95380.63;4828948;29;20100;-66
2022/05/13 04:58:27;;;;;;;12.30;5.72;;;;;;;12.78;87.68;95387.19;4828213;29;20057;-67
2022/05/13 05:00:56;;;;;;;8.98;6.00;;;;;;;12.79;86.59;95391.38;4828948;29;20056;-66
2022/05/13 05:03:27;;;;;;;9.18;6.05;;;;;;;12.95;86.13;95397.72;4826943;29;20058;-67
2022/05/13 05:05:57;;;;;;;10.77;7.17;;;;;;;13.02;85.66;95387.13;4829619;29;20073;-66
2022/05/13 05:08:25;;;;;;;8.13;5.47;;;;;;;13.26;85.48;95392.28;4827665;29;20888;-67
2022/05/13 05:10:52;;;;;;;8.05;5.45;;;;;;;13.34;84.78;95384.06;4842888;29;20110;-66
2022/05/13 05:13:28;;;;;;;7.45;5.15;;;;;;;13.42;83.25;95396.78;4840551;29;20049;-66
2022/05/13 05:15:55;;;;;;;9.43;4.80;;;;;;;13.49;82.70;95407.13;4830097;29;20046;-66
2022/05/13 05:18:23;;;;;;;7.70;4.90;;;;;;;13.56;80.75;95398.09;4827819;29;20050;-66
2022/05/13 05:20:51;;;;;;;7.75;5.05;;;;;;;13.72;81.43;95411.44;4829536;29;20054;-67
2022/05/13 05:23:24;;;;;;;8.93;5.35;;;;;;;13.80;81.85;95403.19;4826387;29;20698;-67
2022/05/13 05:25:51;;;;;;;7.88;5.93;;;;;;;14.05;80.98;95404.66;4830668;29;20141;-66
2022/05/13 05:28:26;;;;;;;9.38;6.53;;;;;;;14.11;79.97;95407.09;4828607;29;20042;-67
2022/05/13 05:30:54;;;;;;;8.18;5.70;;;;;;;14.25;79.49;95404.94;4827026;29;20137;-66
2022/05/13 05:33:21;;;;;;;13.93;5.78;;;;;;;14.34;79.26;95402.72;4829411;29;20053;-67
2022/05/13 05:35:48;;;;;;;13.75;5.55;;;;;;;14.62;78.87;95414.13;4828777;29;20102;-67
2022/05/13 05:38:15;;;;;;;7.82;5.32;;;;;;;14.75;77.82;95405.13;4829225;29;20042;-67
2022/05/13 05:40:43;;;;;;;8.35;5.05;;;;;;;14.90;77.42;95410.56;4827915;29;20058;-67
2022/05/13 05:43:14;;;;;;;13.70;6.05;;;;;;;15.07;76.97;95410.50;4829936;29;20511;-67
2022/05/13 05:45:41;;;;;;;8.23;5.47;;;;;;;15.21;75.15;95405.69;4826350;29;20088;-68
2022/05/13 05:48:14;;;;;;;10.00;5.70;;;;;;;15.32;75.40;95402.13;4827246;29;20042;-66
2022/05/13 05:50:42;;;;;;;8.27;5.30;;;;;;;15.46;74.91;95398.06;4826112;29;20053;-67
2022/05/13 05:53:08;;;;;;;13.40;5.50;;;;;;;15.59;73.66;95402.16;4828793;29;20050;-67
2022/05/13 05:58:20;;;;;;;9.05;5.93;;;;;;;15.73;72.98;95376.25;4826546;29;20046;-66
2022/05/13 06:00:50;;;;;;;9.80;5.32;;;;;;;15.89;72.75;95389.56;4826462;29;20050;-66
2022/05/13 06:03:19;;;;;;;7.50;5.25;;;;;;;16.00;72.68;95388.59;4828876;29;20600;-66
2022/05/13 06:05:52;;;;;;;7.38;5.20;;;;;;;16.17;68.68;95386.63;4827915;29;20073;-67
2022/05/13 06:08:18;;;;;;;9.13;5.50;;;;;;;16.21;66.10;95385.06;4827985;29;20045;-66
2022/05/13 06:10:45;;;;;;;8.55;5.60;;;;;;;16.35;68.43;95382.00;4828581;29;20053;-66
2022/05/13 06:13:14;;;;;;;9.63;5.45;;;;;;;16.43;68.83;95394.69;4828072;29;20050;-67
2022/05/13 06:15:41;;;;;;;9.27;5.93;;;;;;;16.49;66.77;95387.59;4828059;29;20118;-67
2022/05/13 06:18:08;;;;;;;10.20;6.25;;;;;;;16.48;67.77;95386.81;4826874;29;20046;-66
2022/05/13 06:20:35;;;;;;;7.57;5.75;;;;;;;16.59;67.83;95383.19;4828931;29;20049;-66
2022/05/13 06:23:07;;;;;;;7.38;5.63;;;;;;;16.78;67.87;95388.00;4825512;29;20375;-66
2022/05/13 06:25:34;;;;;;;23.85;7.22;;;;;;;16.91;65.64;95379.72;4827164;29;20066;-67
2022/05/13 06:28:01;;;;;;;7.43;5.40;;;;;;;17.07;62.85;95377.13;4826985;29;20080;-67
2022/05/13 06:30:31;;;;;;;10.25;5.90;;;;;;;17.23;64.66;95381.38;4830154;29;20049;-67
2022/05/13 06:32:58;;;;;;;10.93;6.32;;;;;;;17.48;63.14;95377.22;4828014;29;20194;-67
2022/05/13 06:35:27;;;;;;;8.43;4.63;;;;;;;17.55;60.78;95367.22;4828867;29;20054;-68
2022/05/13 06:37:54;;;;;;;10.30;5.10;;;;;;;17.61;60.01;95366.19;4827976;29;20710;-67
2022/05/13 06:40:22;;;;;;;10.25;5.40;;;;;;;17.83;58.50;95373.06;4829998;29;20069;-67
2022/05/13 06:42:53;;;;;;;7.57;4.43;;;;;;;17.92;55.98;95367.03;4829573;29;20957;-66
2022/05/13 06:45:21;;;;;;;13.02;5.20;;;;;;;17.99;57.27;95372.03;4829977;29;20053;-66
2022/05/13 06:47:48;;;;;;;8.27;4.78;;;;;;;18.25;58.30;95374.66;4830196;29;20049;-68
2022/05/13 06:50:18;;;;;;;6.70;4.97;;;;;;;18.25;58.04;95374.66;4829919;29;20727;-67
2022/05/13 06:52:47;;;;;;;8.70;5.22;;;;;;;18.38;58.72;95360.91;4835770;29;20375;-80
2022/05/13 06:55:17;;;;;;;8.85;5.30;;;;;;;18.70;57.92;95376.38;4853043;29;20057;-78
2022/05/13 06:57:44;;;;;;;14.13;6.03;;;;;;;18.81;57.28;95369.25;4838566;29;20045;-75
2022/05/13 07:00:12;;;;;;;11.30;5.60;;;;;;;18.94;57.95;95369.75;4838850;29;20118;-75
2022/05/13 07:02:40;;;;;;;9.63;5.10;;;;;;;19.06;57.07;95368.38;4838970;29;20046;-75
2022/05/13 07:05:12;;;;;;;9.88;5.78;;;;;;;19.10;55.81;95368.63;4838629;29;20049;-75
2022/05/13 07:07:39;;;;;;;10.43;5.38;;;;;;;19.13;56.25;95368.06;4840509;29;20500;-75
2022/05/13 07:10:08;;;;;;;7.85;5.13;;;;;;;19.09;55.60;95343.28;4839257;29;20046;-75
2022/05/13 07:12:38;;;;;;;10.40;5.18;;;;;;;19.23;55.37;95346.09;4840291;29;20599;-75
2022/05/13 07:15:10;;;;;;;6.40;4.45;;;;;;;19.37;54.73;95352.34;4853844;29;20050;-77
2022/05/13 07:17:38;;;;;;;13.50;5.20;;;;;;;19.46;54.59;95349.94;4866309;29;20042;-76
2022/05/13 07:20:06;;;;;;;10.48;4.38;;;;;;;19.46;55.95;95336.72;4840487;29;20049;-77
2022/05/13 07:22:34;;;;;;;9.05;4.80;;;;;;;19.72;55.02;95333.91;4839841;29;20054;-76
2022/05/13 07:25:02;;;;;;;7.63;4.13;;;;;;;20.03;53.22;95348.47;4854515;29;20050;-78
2022/05/13 07:27:30;;;;;;;10.55;4.80;;;;;;;19.93;52.54;95348.56;4840257;29;20042;-76
2022/05/13 07:29:56;;;;;;;8.70;4.57;;;;;;;20.01;53.25;95340.03;4841068;29;20076;-77
2022/05/13 07:32:29;;;;;;;14.43;5.82;;;;;;;20.15;52.81;95328.78;4836959;29;20540;-76
2022/05/13 07:34:57;;;;;;;8.63;4.57;;;;;;;20.52;52.88;95337.97;4835382;29;20049;-74
2022/05/13 07:37:25;;;;;;;8.75;4.22;;;;;;;20.74;50.74;95343.56;4834649;29;20615;-76
2022/05/13 07:42:38;;;;;;;5.55;4.13;;;;;;;21.03;50.04;95342.69;4834334;29;20038;-77
2022/05/13 07:45:06;;;;;;;10.75;4.85;;;;;;;21.19;49.86;95330.84;4847734;29;20046;-77
2022/05/13 07:47:35;;;;;;;7.18;4.20;;;;;;;21.33;50.73;95324.81;4832746;29;20049;-74
2022/05/13 07:50:02;;;;;;;8.73;4.85;;;;;;;21.56;49.15;95313.34;4833306;29;20068;-75
2022/05/13 07:52:29;;;;;;;9.07;3.83;;;;;;;21.81;47.34;95327.31;4832229;29;20076;-75
2022/05/13 07:54:56;;;;;;;9.35;4.30;;;;;;;21.98;48.52;95312.72;4831661;29;20068;-76
2022/05/13 07:57:23;;;;;;;5.75;3.97;;;;;;;22.23;47.69;95328.19;4830298;29;20145;-76
2022/05/13 08:02:40;;;;;;;10.25;4.00;;;;;;;22.51;44.99;95320.28;4830644;29;20049;-75
2022/05/13 08:05:08;;;;;;;8.07;4.70;;;;;;;22.54;45.96;95319.69;4830738;29;20053;-75
2022/05/13 08:07:36;;;;;;;8.07;4.50;;;;;;;22.70;46.00;95312.97;4829836;29;20053;-76
2022/05/13 08:10:03;;;;;;;9.88;4.38;;;;;;;22.75;45.44;95320.06;4830373;29;20049;-73
2022/05/13 08:12:30;;;;;;;7.18;4.18;;;;;;;22.68;44.46;95309.84;4829283;29;20065;-76
2022/05/13 08:14:58;;;;;;;9.45;4.60;;;;;;;22.71;45.61;95319.09;4826260;29;20046;-76
2022/05/13 08:17:25;;;;;;;10.80;4.68;;;;;;;22.79;45.54;95307.00;4812472;29;20042;-76
2022/05/13 08:19:52;;;;;;;8.65;3.97;;;;;;;22.98;43.92;95315.63;4830729;29;20056;-76
2022/05/13 08:22:19;;;;;;;11.18;4.22;;;;;;;23.14;44.19;95299.38;4829040;29;20137;-76
2022/05/13 08:24:48;;;;;;;9.30;4.57;;;;;;;23.20;44.03;95314.91;4828962;29;20057;-76
2022/05/13 08:27:16;;;;;;;11.93;4.07;;;;;;;23.17;43.71;95298.78;4828923;29;20525;-76
2022/05/13 08:29:43;;;;;;;9.55;4.43;;;;;;;23.33;43.38;95281.41;4826438;29;20070;-77
2022/05/13 08:32:10;;;;;;;9.32;4.32;;;;;;;23.69;40.12;95304.50;4827552;29;20436;-76
2022/05/13 08:34:38;;;;;;;6.28;4.18;;;;;;;23.84;40.93;95288.22;4830205;29;20057;-76
2022/05/13 08:37:25;;;;;;;5.50;4.05;;;;;;;23.93;39.77;95301.56;4827769;29;20050;-76
2022/05/13 08:39:52;;;;;;;10.02;3.80;;;;;;;24.11;39.78;95293.66;4829947;29;20054;-76
2022/05/13 08:42:42;;;;;;;6.93;3.25;;;;;;;24.20;38.94;95292.63;4828595;29;20121;-76
2022/05/13 08:45:21;;;;;;;7.60;3.35;;;;;;;24.26;38.75;95284.53;4830006;29;20913;-76
2022/05/13 08:48:00;;;;;;;15.63;8.77;;;;;;;24.27;38.98;95275.44;4863778;29;20042;-77
2022/05/13 08:50:28;;;;;;;5.45;3.85;;;;;;;24.13;38.27;95284.31;4863941;29;20042;-77
2022/05/13 08:53:26;;;;;;;5.43;3.58;;;;;;;24.48;40.07;95276.44;4834146;29;20058;-77
2022/05/13 08:56:04;;;;;;;5.63;3.35;;;;;;;24.65;37.38;95280.28;4844687;29;20058;-76
2022/05/13 08:58:41;;;;;;;6.10;3.40;;;;;;;24.65;37.86;95275.75;4830942;29;20058;-76
2022/05/13 09:01:12;;;;;;;4.45;3.63;;;;;;;24.81;38.44;95262.75;4860987;29;20591;-76
2022/05/13 09:03:50;;;;;;;4.97;3.40;;;;;;;24.76;36.67;95276.25;4830751;29;20170;-77
2022/05/13 09:06:48;;;;;;;9.32;3.63;;;;;;;24.92;37.67;95274.72;4841854;29;20614;-77
2022/05/13 09:09:15;;;;;;;4.50;3.60;;;;;;;24.88;36.58;95267.66;4824588;29;20038;-77
2022/05/13 09:11:52;;;;;;;5.20;3.55;;;;;;;24.87;37.56;95261.53;4827175;29;20057;-76
2022/05/13 09:14:29;;;;;;;7.40;3.67;;;;;;;25.32;37.91;95255.16;4825285;29;20050;-76
2022/05/13 09:17:32;;;;;;;4.30;3.13;;;;;;;25.36;36.25;95246.22;4828516;29;20137;-76
2022/05/13 09:20:02;;;;;;;6.60;3.30;;;;;;;25.79;35.33;95257.16;4828955;29;20061;-76
2022/05/13 09:22:45;;;;;;;8.32;5.55;;;;;;;25.94;33.85;95259.31;4824984;29;20055;-76
2022/05/13 09:25:25;;;;;;;4.28;3.03;;;;;;;25.86;33.85;95252.88;4828365;29;20053;-76
2022/05/13 09:28:06;;;;;;;4.93;3.40;;;;;;;25.98;33.91;95244.22;4828364;29;20057;-76
2022/05/13 09:30:36;;;;;;;12.57;3.97;;;;;;;26.09;33.12;95244.66;4825258;29;20053;-76
2022/05/13 09:33:30;;;;;;;4.43;3.67;;;;;;;26.30;33.17;95239.41;4827340;29;20607;-76
2022/05/13 09:36:04;;;;;;;4.15;3.33;;;;;;;25.94;32.19;95232.63;4828378;29;20057;-77
2022/05/13 09:38:45;;;;;;;3.95;2.97;;;;;;;26.12;31.92;95223.47;4828801;29;20098;-75
2022/05/13 09:41:27;;;;;;;3.58;2.55;;;;;;;26.37;31.16;95225.56;4828652;29;20571;-79
2022/05/13 09:43:56;;;;;;;4.32;2.90;;;;;;;26.39;30.72;95229.47;4834975;29;20042;-76
2022/05/13 09:46:33;;;;;;;5.93;3.05;;;;;;;26.32;30.58;95210.50;4828089;29;20129;-74
2022/05/13 09:49:12;;;;;;;6.47;3.00;;;;;;;26.83;30.93;95211.34;4828017;29;20050;-75
2022/05/13 09:51:53;;;;;;;3.70;2.95;;;;;;;27.22;29.33;95219.97;4827677;29;20729;-75
2022/05/13 09:54:31;;;;;;;3.45;2.53;;;;;;;27.68;30.17;95214.72;4841213;29;20053;-75
2022/05/13 09:57:06;;;;;;;4.45;3.15;;;;;;;27.61;29.58;95215.25;4828320;29;20137;-75
2022/05/13 09:59:39;;;;;;;3.10;2.67;;;;;;;27.58;30.55;95205.19;4829282;29;20038;-75
2022/05/13 10:02:34;;;;;;;3.30;2.88;;;;;;;27.68;29.11;95209.34;4827235;29;20153;-75
2022/05/13 10:05:19;;;;;;;5.47;2.42;;;;;;;27.82;29.16;95203.69;4858336;29;20673;-75
2022/05/13 10:07:53;;;;;;;5.03;3.00;;;;;;;28.38;29.59;95203.97;4827057;29;20642;-75
2022/05/13 10:16:01;;;;;;;6.93;3.22;;;;;;;29.59;27.66;95193.63;4827729;29;20057;-75
2022/05/13 10:18:32;;;;;;;8.18;2.50;;;;;;;29.39;26.99;95168.56;4826106;29;20046;-74
2022/05/13 10:21:04;;;;;;;3.38;2.80;;;;;;;29.60;27.80;95195.94;4828206;29;20133;-75
2022/05/13 10:23:42;;;;;;;3.67;3.00;;;;;;;29.37;27.50;95193.06;4828090;29;20768;-75
2022/05/13 10:26:19;;;;;;;5.20;3.30;;;;;;;29.52;27.47;95178.91;4843284;29;20045;-75
2022/05/13 10:28:58;;;;;;;3.20;2.88;;;;;;;29.19;27.13;95176.50;4832574;29;20042;-75
2022/05/13 10:31:29;;;;;;;5.35;3.17;;;;;;;28.68;28.26;95179.63;4832866;29;20045;-75
2022/05/13 10:34:34;;;;;;;5.97;2.90;;;;;;;28.75;28.32;95179.84;4830779;29;20520;-75
2022/05/13 10:37:10;;;;;;;5.80;3.05;;;;;;;28.05;29.42;95173.84;4861829;29;20049;-75
2022/05/13 10:39:46;;;;;;;3.40;3.05;;;;;;;28.20;29.02;95173.19;4831269;29;20142;-73
2022/05/13 10:42:16;;;;;;;5.00;3.22;;;;;;;28.29;29.20;95173.88;4830622;29;20037;-74
2022/05/13 10:45:14;;;;;;;4.38;3.25;;;;;;;28.30;29.43;95162.00;4827242;29;20058;-74
2022/05/13 10:47:46;;;;;;;4.18;3.20;;;;;;;28.66;28.47;95165.78;4844421;29;20050;-75
2022/05/13 10:50:25;;;;;;;5.70;3.15;;;;;;;29.04;27.79;95156.50;4826941;29;20049;-74
2022/05/13 10:53:04;;;;;;;5.40;3.70;;;;;;;29.37;28.39;95163.56;4844997;29;20136;-73
2022/05/13 10:56:13;;;;;;;4.93;2.90;;;;;;;30.05;27.27;95161.81;4829232;29;20053;-74
2022/05/13 10:59:11;;;;;;;4.10;2.92;;;;;;;30.89;26.20;95155.22;4830269;29;20042;-73
2022/05/13 11:01:48;;;;;;;15.95;3.28;;;;;;;31.49;26.81;95151.38;4846270;29;20102;-74
2022/05/13 11:04:39;;;;;;;3.00;2.58;;;;;;;31.77;25.57;95149.19;4862018;29;20053;-76
2022/05/13 11:07:40;;;;;;;3.30;2.58;;;;;;;32.11;25.26;95138.59;4831509;29;20137;-76
2022/05/13 11:10:22;;;;;;;5.03;2.65;;;;;;;32.50;25.11;95141.09;4830788;29;20054;-75
2022/05/13 11:13:06;;;;;;;4.35;2.65;;;;;;;32.60;24.34;95138.91;4865495;29;20575;-75
2022/05/13 11:15:51;;;;;;;3.65;3.00;;;;;;;31.60;24.33;95128.13;4835355;29;20056;-75
2022/05/13 11:18:24;;;;;;;3.05;2.67;;;;;;;31.72;25.33;95124.47;4835270;29;20057;-75
2022/05/13 11:21:01;;;;;;;3.78;2.20;;;;;;;31.93;23.94;95129.44;4834748;29;20136;-75
2022/05/13 11:27:21;;;;;;;5.47;3.30;;;;;;;31.12;24.75;95103.44;4830660;29;20054;-76
2022/05/13 11:29:53;;;;;;;2.90;2.60;;;;;;;30.95;26.07;95121.53;4831363;29;20057;-75
2022/05/13 11:32:39;;;;;;;3.30;2.97;;;;;;;31.44;25.73;95110.16;4830914;29;20061;-75
2022/05/13 11:35:28;;;;;;;8.85;4.10;;;;;;;32.31;24.81;95101.53;4831793;29;20057;-75
2022/05/13 11:38:02;;;;;;;6.90;2.75;;;;;;;32.42;23.61;95101.69;4859404;29;20053;-75
2022/05/13 11:40:45;;;;;;;3.35;2.75;;;;;;;32.86;23.89;95101.13;4830742;29;20129;-75
2022/05/13 11:43:39;;;;;;;3.40;3.05;;;;;;;33.00;22.96;95097.00;4831460;29;20046;-75
2022/05/13 11:46:21;;;;;;;3.78;2.95;;;;;;;33.31;23.35;95091.19;4858320;29;20058;-75
2022/05/13 11:49:14;;;;;;;2.47;2.25;;;;;;;33.93;21.56;95097.91;4829465;29;21282;-76
2022/05/13 11:51:41;;;;;;;7.23;2.30;;;;;;;34.34;21.46;95095.09;4844319;29;20058;-75
2022/05/13 11:54:22;;;;;;;3.97;3.05;;;;;;;34.45;21.61;95079.69;4828409;29;20108;-74
2022/05/13 11:57:10;;;;;;;5.10;2.20;;;;;;;34.77;21.31;95089.13;4831096;29;20497;-74
2022/05/13 11:59:46;;;;;;;2.75;2.40;;;;;;;34.98;20.04;95066.78;4841174;29;20056;-75
2022/05/13 12:02:12;;;;;;;3.03;2.40;;;;;;;34.85;20.05;95083.34;4827218;29;20068;-75
2022/05/13 12:05:24;;;;;;;3.75;2.92;;;;;;;34.46;20.74;95077.78;4859489;29;20058;-74
2022/05/13 12:08:21;;;;;;;2.42;2.22;;;;;;;33.74;19.83;95069.19;4829988;29;20497;-75
2022/05/13 12:11:13;;;;;;;2.22;2.03;;;;;;;33.80;19.75;95056.91;4830068;29;20104;-76
2022/05/13 12:14:18;;;;;;;3.05;2.38;;;;;;;33.41;21.08;95053.88;4844352;29;20056;-75
2022/05/13 12:17:08;;;;;;;3.83;2.08;;;;;;;34.53;19.28;95052.69;4829703;29;20564;-75
2022/05/13 12:20:15;;;;;;;2.00;1.73;;;;;;;35.17;19.43;95044.78;4829244;29;20046;-75
2022/05/13 12:22:55;;;;;;;2.17;1.52;;;;;;;35.41;17.91;95039.81;4830072;29;20069;-75
2022/05/13 12:25:26;;;;;;;4.72;2.33;;;;;;;35.21;19.05;95037.47;4830982;29;20046;-75
2022/05/13 12:28:29;;;;;;;2.38;1.83;;;;;;;35.49;18.09;95035.94;4829190;29;20815;-75
2022/05/13 12:30:56;;;;;;;2.22;1.70;;;;;;;35.86;18.05;95031.28;4843732;29;20055;-75